Terminal Aerodrome Forecast
Issued by NWS Charleston, WV

Current Version | Previous Version | Graphics & Text | Print | Product List | Glossary On
Versions: 1 2 3 4 5 6 7 8 9 10 11 12 13 14 15 16 17 18 19 20 21 22 23 24 25 26 27 28 29 30
000
FTUS41 KRLX 251700
TAFEKN
TAF
KEKN 251730Z 2518/2618 24006KT P6SM BKN040
     FM260400 16005KT 6SM -RAPL BR BKN035
     FM260600 16005KT 4SM -RASNPL BR OVC020
     FM260800 15004KT 2SM -SNPL BR OVC010
     FM261200 12005KT 2SM -SN BR OVC003
     FM261600 12004KT 2SM -RASN BR OVC003=

USA.gov is the U.S. government's official web portal to all federal, state and local government web resources and services.